Time;durP1;ratioP1;P1;durP2;ratioP2;P2;SDS_P1;SDS_P2;PMS_P1;PMS_P2;Temp;Humidity;BMP_temperature;BMP_pressure;BME280_temperature;BME280_humidity;BME280_pressure;Samples;Min_cycle;Max_cycle;Signal;HPM_P1;HPM_P2
2021/01/06 00:01:38;;;;;;;22.80;14.80;;;-2.80;70.60;;;;;;5154254;28;20654;-74
2021/01/06 00:04:10;;;;;;;24.67;14.80;;;-2.80;70.70;;;;;;5163014;28;20404;-74
2021/01/06 00:06:41;;;;;;;25.30;16.02;;;-2.80;71.00;;;;;;5164963;28;20050;-73
2021/01/06 00:09:12;;;;;;;23.17;14.85;;;-2.80;70.70;;;;;;5166827;28;20412;-74
2021/01/06 00:11:44;;;;;;;24.52;16.33;;;-2.70;71.00;;;;;;5168134;28;21608;-74
2021/01/06 00:14:16;;;;;;;24.52;16.15;;;-2.70;71.20;;;;;;5166253;28;20585;-74
2021/01/06 00:16:52;;;;;;;23.60;15.27;;;-2.70;71.50;;;;;;5168387;28;20095;-74
2021/01/06 00:19:24;;;;;;;27.08;16.05;;;-2.80;71.30;;;;;;5166116;28;20504;-74
2021/01/06 00:21:55;;;;;;;24.52;15.77;;;-2.80;71.50;;;;;;5164467;28;20042;-73
2021/01/06 00:24:27;;;;;;;24.70;15.32;;;-2.80;71.20;;;;;;5164394;28;20144;-74
2021/01/06 00:26:58;;;;;;;24.58;15.10;;;-2.80;71.10;;;;;;5164467;28;20053;-74
2021/01/06 00:29:30;;;;;;;23.63;15.30;;;-2.80;71.40;;;;;;5165758;28;20058;-74
2021/01/06 00:32:01;;;;;;;24.38;15.05;;;-2.80;71.10;;;;;;5164307;28;20046;-73
2021/01/06 00:34:33;;;;;;;22.50;15.57;;;-2.80;71.10;;;;;;5167726;28;20042;-74
2021/01/06 00:37:04;;;;;;;22.65;15.18;;;-2.80;70.90;;;;;;5165716;28;20424;-74
2021/01/06 00:39:35;;;;;;;21.25;15.30;;;-2.70;71.40;;;;;;5166163;28;20042;-74
2021/01/06 00:42:07;;;;;;;23.52;15.45;;;-2.70;71.80;;;;;;5164935;28;20042;-75
2021/01/06 00:44:38;;;;;;;23.02;15.95;;;-2.80;71.60;;;;;;5164146;28;20053;-74
2021/01/06 00:47:10;;;;;;;22.05;15.02;;;-2.80;71.90;;;;;;5165921;28;20038;-74
2021/01/06 00:49:41;;;;;;;24.27;15.88;;;-2.80;72.00;;;;;;5155972;28;20053;-74
2021/01/06 00:52:13;;;;;;;23.15;15.27;;;-2.80;72.50;;;;;;5152663;28;20526;-73
2021/01/06 00:54:47;;;;;;;23.55;15.43;;;-2.90;73.10;;;;;;5165325;28;20472;-74
2021/01/06 00:57:19;;;;;;;25.38;15.05;;;-2.90;73.10;;;;;;5153615;28;20046;-75
2021/01/06 00:59:50;;;;;;;22.38;15.52;;;-2.90;73.00;;;;;;5165315;28;20072;-74
2021/01/06 01:02:23;;;;;;;21.77;14.55;;;-2.90;73.00;;;;;;5163730;28;20092;-74
2021/01/06 01:04:55;;;;;;;24.52;15.35;;;-2.90;72.70;;;;;;5149220;28;20541;-74
2021/01/06 01:07:26;;;;;;;25.33;15.60;;;-2.90;73.00;;;;;;5166682;28;20464;-74
2021/01/06 01:09:58;;;;;;;23.55;15.02;;;-2.90;72.80;;;;;;5165213;28;20546;-74
2021/01/06 01:12:29;;;;;;;23.38;14.32;;;-2.90;72.90;;;;;;5163387;28;20054;-75
2021/01/06 01:15:01;;;;;;;22.42;14.88;;;-2.90;73.20;;;;;;5165083;28;20070;-74
2021/01/06 01:17:32;;;;;;;23.30;16.40;;;-3.10;73.60;;;;;;5167382;28;20428;-74
2021/01/06 01:20:04;;;;;;;25.92;15.40;;;-3.10;73.60;;;;;;5166260;28;20061;-74
2021/01/06 01:22:36;;;;;;;23.40;14.43;;;-3.10;73.90;;;;;;5166614;28;20037;-74
2021/01/06 01:25:24;;;;;;;23.02;15.13;;;-3.10;74.00;;;;;;5165183;28;20583;-75
2021/01/06 01:27:55;;;;;;;24.95;15.32;;;-3.10;74.20;;;;;;5147167;28;20413;-73
2021/01/06 01:30:27;;;;;;;24.20;15.48;;;-3.20;74.50;;;;;;5166349;28;20101;-74
2021/01/06 01:32:59;;;;;;;24.77;16.27;;;-3.20;75.20;;;;;;5153480;28;20108;-75
2021/01/06 01:35:32;;;;;;;24.98;16.48;;;-3.20;75.20;;;;;;5149021;28;20361;-74
2021/01/06 01:38:05;;;;;;;25.17;16.08;;;-3.20;75.00;;;;;;5166869;28;20057;-74
2021/01/06 01:40:39;;;;;;;22.60;15.70;;;-3.20;75.00;;;;;;5161555;28;20054;-73
2021/01/06 01:43:13;;;;;;;23.88;15.95;;;-3.30;75.30;;;;;;5148013;28;20054;-74
2021/01/06 01:45:44;;;;;;;23.73;16.65;;;-3.20;75.20;;;;;;5165428;28;20046;-74
2021/01/06 01:48:31;;;;;;;26.90;16.67;;;-3.20;75.50;;;;;;5152085;28;20061;-75
2021/01/06 01:51:06;;;;;;;22.52;14.80;;;-3.20;75.20;;;;;;5163715;28;20053;-75
2021/01/06 01:54:05;;;;;;;23.05;15.70;;;-3.20;75.20;;;;;;5164897;28;20573;-74
2021/01/06 01:56:59;;;;;;;24.65;15.63;;;-3.20;75.40;;;;;;5145600;28;20130;-74
2021/01/06 01:59:33;;;;;;;26.13;16.65;;;-3.30;75.30;;;;;;5146793;28;20120;-75
2021/01/06 02:02:40;;;;;;;29.38;17.00;;;-3.30;75.30;;;;;;5161698;28;20030;-74
2021/01/06 02:05:27;;;;;;;23.20;15.85;;;-3.30;75.20;;;;;;5154975;28;20070;-74
2021/01/06 02:08:14;;;;;;;22.70;15.45;;;-3.30;75.70;;;;;;5163599;28;20641;-75
2021/01/06 02:11:00;;;;;;;23.52;16.02;;;-3.30;75.70;;;;;;5165366;28;20038;-73
2021/01/06 02:13:40;;;;;;;26.23;16.08;;;-3.40;75.70;;;;;;5163747;28;20077;-74
2021/01/06 02:16:42;;;;;;;26.67;17.15;;;-3.40;75.90;;;;;;5167048;28;20049;-73
2021/01/06 02:19:18;;;;;;;27.77;16.05;;;-3.40;76.00;;;;;;5162013;28;20041;-74
2021/01/06 02:21:50;;;;;;;26.02;15.85;;;-3.50;76.30;;;;;;5165913;28;20038;-73
2021/01/06 02:24:22;;;;;;;23.55;15.27;;;-3.50;76.50;;;;;;5162044;28;20570;-73
2021/01/06 02:26:53;;;;;;;26.55;16.25;;;-3.50;76.40;;;;;;5163056;28;20042;-73
2021/01/06 02:29:25;;;;;;;27.10;16.73;;;-3.50;76.30;;;;;;5163075;28;20532;-73
2021/01/06 02:31:57;;;;;;;25.75;16.50;;;-3.40;76.30;;;;;;5161004;28;20424;-72
2021/01/06 02:34:28;;;;;;;23.52;15.90;;;-3.50;76.40;;;;;;5151615;28;20082;-73
2021/01/06 02:37:00;;;;;;;24.02;15.80;;;-3.50;76.60;;;;;;5164064;28;20139;-74
2021/01/06 02:39:33;;;;;;;24.33;15.93;;;-3.50;76.40;;;;;;5164318;28;20050;-74
2021/01/06 02:42:06;;;;;;;24.02;15.45;;;-3.50;75.90;;;;;;5145212;28;20081;-74
2021/01/06 02:44:38;;;;;;;24.95;15.73;;;-3.50;75.80;;;;;;5161922;28;20038;-74
2021/01/06 02:47:10;;;;;;;23.70;15.20;;;-3.40;75.60;;;;;;5145378;28;20048;-74
2021/01/06 02:49:42;;;;;;;24.13;15.48;;;-3.40;75.40;;;;;;5160334;28;20660;-74
2021/01/06 02:52:17;;;;;;;21.15;14.23;;;-3.50;75.90;;;;;;5160583;28;20053;-74
2021/01/06 02:54:50;;;;;;;22.38;15.38;;;-3.40;75.90;;;;;;5162367;28;20054;-74
2021/01/06 02:57:22;;;;;;;25.98;15.93;;;-3.40;75.60;;;;;;5160480;28;20220;-74
2021/01/06 02:59:54;;;;;;;23.95;15.80;;;-3.30;75.50;;;;;;5165597;28;20146;-74
2021/01/06 03:02:25;;;;;;;26.80;17.30;;;-3.30;76.00;;;;;;5160610;28;20575;-73
2021/01/06 03:05:03;;;;;;;25.92;15.93;;;-3.30;76.00;;;;;;5163284;28;20049;-73
2021/01/06 03:07:36;;;;;;;24.33;16.52;;;-3.30;76.40;;;;;;5140349;28;20054;-73
2021/01/06 03:10:13;;;;;;;25.55;16.27;;;-3.30;76.20;;;;;;5119618;28;20612;-75
2021/01/06 03:12:46;;;;;;;24.02;16.05;;;-3.30;76.30;;;;;;5162062;28;20039;-74
2021/01/06 03:15:21;;;;;;;25.08;16.25;;;-3.40;76.40;;;;;;5140446;28;20110;-74
2021/01/06 03:17:53;;;;;;;24.30;16.55;;;-3.40;76.60;;;;;;5136397;28;21731;-75
2021/01/06 03:20:38;;;;;;;23.02;15.57;;;-3.40;76.60;;;;;;5108229;28;20054;-76
2021/01/06 03:23:29;;;;;;;22.90;15.40;;;-3.40;76.80;;;;;;5141469;28;20046;-76
2021/01/06 03:26:08;;;;;;;24.05;16.38;;;-3.40;76.70;;;;;;5142891;28;20118;-76
2021/01/06 03:28:42;;;;;;;23.95;16.65;;;-3.30;76.50;;;;;;5143416;28;20378;-74
2021/01/06 03:31:20;;;;;;;25.92;15.88;;;-3.30;76.40;;;;;;5127665;28;20066;-76
2021/01/06 03:33:59;;;;;;;23.92;16.40;;;-3.30;76.10;;;;;;5142995;28;20587;-75
2021/01/06 03:36:38;;;;;;;24.33;16.48;;;-3.30;75.90;;;;;;5160210;28;20051;-74
2021/01/06 03:39:19;;;;;;;23.42;14.80;;;-3.20;76.20;;;;;;5144385;28;20043;-75
2021/01/06 03:41:52;;;;;;;25.27;16.42;;;-3.30;76.20;;;;;;5141454;28;20066;-74
2021/01/06 03:44:25;;;;;;;25.02;16.58;;;-3.20;76.10;;;;;;5142532;28;20105;-74
2021/01/06 03:47:13;;;;;;;22.88;16.17;;;-3.30;76.30;;;;;;5141229;28;20054;-75
2021/01/06 03:49:59;;;;;;;23.33;16.17;;;-3.30;76.00;;;;;;5142379;28;20669;-75
2021/01/06 03:52:39;;;;;;;24.80;15.57;;;-3.30;76.20;;;;;;5140346;28;20441;-75
2021/01/06 03:55:28;;;;;;;23.30;15.18;;;-3.30;76.40;;;;;;5142811;28;20046;-75
2021/01/06 03:58:00;;;;;;;22.95;15.57;;;-3.30;76.50;;;;;;5126080;28;20582;-75
2021/01/06 04:00:45;;;;;;;22.23;15.98;;;-3.30;76.30;;;;;;5135595;28;20046;-74
2021/01/06 04:03:39;;;;;;;23.88;16.10;;;-3.30;76.60;;;;;;5139188;28;20551;-75
2021/01/06 04:06:12;;;;;;;24.20;16.25;;;-3.40;76.80;;;;;;5142930;28;20471;-74
2021/01/06 04:08:49;;;;;;;22.08;15.18;;;-3.40;76.80;;;;;;5141918;28;20043;-73
2021/01/06 04:11:26;;;;;;;23.63;16.15;;;-3.30;76.60;;;;;;5140918;28;20057;-74
2021/01/06 04:13:57;;;;;;;22.35;15.18;;;-3.30;76.30;;;;;;5141649;28;20038;-74
2021/01/06 04:16:29;;;;;;;22.00;15.13;;;-3.20;75.90;;;;;;5142408;28;20053;-74
2021/01/06 04:19:01;;;;;;;21.08;14.98;;;-3.20;75.70;;;;;;5142175;28;20054;-74
2021/01/06 04:21:32;;;;;;;21.33;14.88;;;-3.20;75.70;;;;;;5137892;28;20062;-74
2021/01/06 04:24:04;;;;;;;20.13;14.32;;;-3.10;75.80;;;;;;5145796;28;20046;-73
2021/01/06 04:26:38;;;;;;;18.90;14.60;;;-3.10;75.60;;;;;;5159783;28;20053;-74
2021/01/06 04:29:14;;;;;;;22.67;15.55;;;-3.00;75.50;;;;;;5143097;28;20053;-75
2021/01/06 04:31:45;;;;;;;22.80;15.18;;;-3.00;75.30;;;;;;5144431;28;20054;-74
2021/01/06 04:34:16;;;;;;;22.15;15.80;;;-3.00;75.10;;;;;;5145132;28;20047;-74
2021/01/06 04:36:48;;;;;;;22.73;15.68;;;-3.00;76.00;;;;;;5158859;28;20074;-75
2021/01/06 04:39:20;;;;;;;20.13;14.70;;;-3.00;75.00;;;;;;5144833;28;20052;-74
2021/01/06 04:41:59;;;;;;;22.52;15.85;;;-3.10;75.00;;;;;;5126929;28;20120;-74
2021/01/06 04:44:45;;;;;;;20.45;14.57;;;-3.00;75.00;;;;;;5137670;28;20436;-73
2021/01/06 04:47:20;;;;;;;21.48;15.52;;;-2.90;75.10;;;;;;5158858;28;20714;-74
2021/01/06 04:50:10;;;;;;;22.63;15.80;;;-3.00;74.80;;;;;;5144352;28;20121;-74
2021/01/06 04:53:19;;;;;;;21.42;14.68;;;-3.00;74.70;;;;;;5142218;28;20413;-74
2021/01/06 04:56:17;;;;;;;22.30;14.98;;;-2.90;74.90;;;;;;5141637;28;20109;-74
2021/01/06 04:59:11;;;;;;;23.65;15.38;;;-2.90;75.30;;;;;;5142119;28;20050;-74
2021/01/06 05:01:52;;;;;;;20.38;14.52;;;-3.00;75.00;;;;;;5141510;28;20038;-78
2021/01/06 05:04:54;;;;;;;21.40;14.98;;;-3.00;75.00;;;;;;5125826;28;20130;-76
2021/01/06 05:07:47;;;;;;;23.27;15.73;;;-3.00;74.90;;;;;;5156490;28;20448;-76
2021/01/06 05:10:27;;;;;;;20.70;14.77;;;-3.00;75.10;;;;;;5142939;28;20046;-76
2021/01/06 05:13:25;;;;;;;22.23;14.85;;;-3.00;75.10;;;;;;5143018;28;20054;-76
2021/01/06 05:16:02;;;;;;;22.02;14.68;;;-3.00;75.40;;;;;;5123393;28;20106;-76
2021/01/06 05:18:34;;;;;;;20.05;14.98;;;-3.00;75.30;;;;;;5159002;28;20051;-76
2021/01/06 05:21:18;;;;;;;20.35;14.45;;;-3.00;75.30;;;;;;5156199;28;20065;-76
2021/01/06 05:23:54;;;;;;;19.95;13.82;;;-3.00;75.40;;;;;;5166413;28;20133;-74
2021/01/06 05:26:25;;;;;;;18.80;14.00;;;-3.00;75.50;;;;;;5163876;28;20050;-74
2021/01/06 05:28:58;;;;;;;19.23;14.05;;;-3.00;75.40;;;;;;5162485;28;20100;-74
2021/01/06 05:31:30;;;;;;;18.73;14.00;;;-2.90;75.40;;;;;;5168364;28;20704;-75
2021/01/06 05:34:01;;;;;;;19.20;13.95;;;-2.90;75.40;;;;;;5150089;28;20559;-73
2021/01/06 05:36:33;;;;;;;21.67;14.60;;;-2.90;75.60;;;;;;5161819;28;20527;-74
2021/01/06 05:39:21;;;;;;;21.58;14.60;;;-2.90;75.60;;;;;;5151871;28;20056;-75
2021/01/06 05:42:04;;;;;;;20.20;14.25;;;-2.90;75.80;;;;;;5163334;28;20062;-74
2021/01/06 05:44:36;;;;;;;21.75;15.05;;;-2.90;75.80;;;;;;5161171;28;20042;-74
2021/01/06 05:47:18;;;;;;;20.15;14.27;;;-2.90;75.80;;;;;;5164356;28;20041;-74
2021/01/06 05:49:52;;;;;;;20.15;15.00;;;-3.00;76.10;;;;;;5164252;28;20057;-74
2021/01/06 05:52:30;;;;;;;23.02;15.63;;;-2.90;76.10;;;;;;5163549;28;20045;-74
2021/01/06 05:55:06;;;;;;;20.90;15.27;;;-2.90;76.10;;;;;;5166454;28;20050;-75
2021/01/06 05:58:02;;;;;;;21.23;15.40;;;-2.90;76.10;;;;;;5165945;28;20053;-74
2021/01/06 06:00:47;;;;;;;40.05;15.43;;;-3.00;75.90;;;;;;5164600;28;20042;-74
2021/01/06 06:03:28;;;;;;;19.33;14.25;;;-3.00;76.10;;;;;;5162669;28;20539;-74
2021/01/06 06:06:23;;;;;;;22.42;15.55;;;-3.00;76.20;;;;;;5162701;28;20054;-74
2021/01/06 06:09:40;;;;;;;22.35;14.10;;;-3.10;76.50;;;;;;5145042;28;20054;-74
2021/01/06 06:12:36;;;;;;;22.00;14.40;;;-3.10;76.60;;;;;;5165355;28;20478;-74
2021/01/06 06:15:23;;;;;;;19.08;13.50;;;-3.10;76.50;;;;;;5146221;28;20040;-75
2021/01/06 06:18:19;;;;;;;21.15;14.88;;;-3.10;76.30;;;;;;5165074;28;20754;-74
2021/01/06 06:21:10;;;;;;;20.45;14.55;;;-3.10;76.40;;;;;;5153593;28;20077;-74
2021/01/06 06:24:10;;;;;;;19.33;14.18;;;-3.00;76.00;;;;;;5153005;28;20081;-74
2021/01/06 06:26:51;;;;;;;20.73;14.32;;;-3.00;76.00;;;;;;5163479;28;20049;-76
2021/01/06 06:29:32;;;;;;;17.77;13.00;;;-3.00;75.90;;;;;;5163861;28;20535;-77
2021/01/06 06:32:05;;;;;;;21.02;14.00;;;-3.00;76.10;;;;;;5164062;28;20061;-76
2021/01/06 06:34:40;;;;;;;19.60;14.45;;;-3.00;75.80;;;;;;5164878;28;20116;-77
2021/01/06 06:37:11;;;;;;;19.33;14.60;;;-3.00;76.20;;;;;;5165122;28;20146;-77
2021/01/06 06:40:04;;;;;;;18.92;13.35;;;-3.00;76.30;;;;;;5164921;28;20050;-77
2021/01/06 06:42:54;;;;;;;19.17;14.20;;;-3.10;76.50;;;;;;5164423;28;20046;-77
2021/01/06 06:45:49;;;;;;;19.87;12.93;;;-3.10;76.70;;;;;;5162006;28;20100;-77
2021/01/06 06:48:52;;;;;;;21.55;13.80;;;-3.00;76.60;;;;;;5164902;28;20053;-76
2021/01/06 06:52:00;;;;;;;18.95;13.88;;;-3.00;77.30;;;;;;5163140;28;20121;-77
2021/01/06 06:55:00;;;;;;;20.00;13.77;;;-3.00;76.30;;;;;;5148938;28;20042;-77
2021/01/06 06:57:44;;;;;;;20.93;13.57;;;-3.00;76.90;;;;;;5163352;28;20528;-77
2021/01/06 07:00:23;;;;;;;20.63;14.52;;;-3.00;76.50;;;;;;5162277;28;20049;-76
2021/01/06 07:03:03;;;;;;;21.95;13.98;;;-3.10;77.40;;;;;;5164214;28;20046;-76
2021/01/06 07:05:51;;;;;;;21.15;14.10;;;-3.10;77.00;;;;;;5164371;28;20058;-74
2021/01/06 07:08:28;;;;;;;19.58;15.55;;;-3.20;76.90;;;;;;5148315;28;20779;-74
2021/01/06 07:10:59;;;;;;;20.38;14.57;;;-3.10;77.00;;;;;;5164293;28;20080;-75
2021/01/06 07:13:33;;;;;;;20.83;15.48;;;-3.10;77.00;;;;;;5166496;28;20523;-73
2021/01/06 07:16:06;;;;;;;23.27;15.27;;;-3.10;76.90;;;;;;5163182;28;20468;-74
2021/01/06 07:18:45;;;;;;;22.10;16.05;;;-3.00;76.80;;;;;;5166154;28;20050;-76
2021/01/06 07:21:30;;;;;;;21.38;15.27;;;-3.00;76.50;;;;;;5153716;28;20053;-75
2021/01/06 07:24:14;;;;;;;19.95;15.27;;;-2.90;76.50;;;;;;5167817;28;20049;-76
2021/01/06 07:26:57;;;;;;;21.77;16.17;;;-2.90;76.40;;;;;;5165652;28;20100;-76
2021/01/06 07:29:33;;;;;;;23.05;16.30;;;-2.80;76.30;;;;;;5167701;28;20100;-75
2021/01/06 07:32:10;;;;;;;19.83;14.70;;;-2.80;76.20;;;;;;5163581;28;20056;-76
2021/01/06 07:34:57;;;;;;;20.17;14.35;;;-2.80;76.10;;;;;;5162854;28;20046;-74
2021/01/06 07:37:37;;;;;;;22.30;15.45;;;-2.70;76.10;;;;;;5160613;28;20127;-75
2021/01/06 07:40:23;;;;;;;21.20;14.52;;;-2.70;76.00;;;;;;5145733;28;20125;-76
2021/01/06 07:43:17;;;;;;;18.95;14.05;;;-2.60;76.00;;;;;;5163671;28;20046;-76
2021/01/06 07:46:09;;;;;;;20.67;14.45;;;-2.50;75.80;;;;;;5141362;28;20093;-76
2021/01/06 07:48:43;;;;;;;22.02;14.55;;;-2.50;75.40;;;;;;5163094;28;20578;-75
2021/01/06 07:51:47;;;;;;;25.80;17.92;;;-2.50;76.00;;;;;;5164690;28;20046;-75
2021/01/06 07:54:32;;;;;;;23.90;16.55;;;-2.40;75.90;;;;;;5151574;28;20417;-76
2021/01/06 07:57:17;;;;;;;22.25;16.45;;;-2.40;75.60;;;;;;5161602;28;20461;-76
2021/01/06 07:59:53;;;;;;;23.73;16.60;;;-2.30;75.60;;;;;;5163701;28;20128;-77
2021/01/06 08:02:53;;;;;;;21.52;16.13;;;-2.20;75.00;;;;;;5163118;28;20044;-76
2021/01/06 08:05:34;;;;;;;20.80;15.68;;;-2.20;75.10;;;;;;5167748;28;20104;-75
2021/01/06 08:08:12;;;;;;;20.13;15.45;;;-2.10;75.20;;;;;;5168161;28;20037;-76
2021/01/06 08:10:47;;;;;;;22.77;15.50;;;-2.10;74.60;;;;;;5158255;28;20497;-75
2021/01/06 08:13:21;;;;;;;20.42;15.55;;;-2.10;74.60;;;;;;5162682;28;20050;-76
2021/01/06 08:16:09;;;;;;;21.33;15.02;;;-2.10;74.60;;;;;;5164252;28;20046;-76
2021/01/06 08:19:15;;;;;;;20.88;15.48;;;-2.10;74.50;;;;;;5161319;28;20042;-76
2021/01/06 08:22:24;;;;;;;19.88;15.10;;;-2.10;74.30;;;;;;5152928;28;20069;-75
2021/01/06 08:25:02;;;;;;;20.10;14.70;;;-2.00;74.70;;;;;;5157289;28;20112;-76
2021/01/06 08:27:37;;;;;;;19.20;13.88;;;-1.90;74.40;;;;;;5164949;28;21370;-76
2021/01/06 08:30:30;;;;;;;19.63;14.90;;;-1.90;74.20;;;;;;5141816;28;20073;-78
2021/01/06 08:33:01;;;;;;;21.77;15.90;;;-2.00;74.30;;;;;;5162054;28;20635;-76
2021/01/06 08:35:39;;;;;;;19.77;14.43;;;-2.10;74.70;;;;;;5160046;28;20046;-76
2021/01/06 08:38:32;;;;;;;20.50;15.55;;;-2.10;74.60;;;;;;5164926;28;20632;-76
2021/01/06 08:41:18;;;;;;;21.98;16.10;;;-2.00;74.70;;;;;;5165249;28;20747;-77
2021/01/06 08:43:50;;;;;;;22.98;16.65;;;-1.90;74.50;;;;;;5148383;28;20042;-76
2021/01/06 08:46:26;;;;;;;23.67;16.90;;;-1.80;74.40;;;;;;5160743;28;20045;-73
2021/01/06 08:49:21;;;;;;;19.33;14.93;;;-1.60;74.80;;;;;;5163941;28;20042;-76
2021/01/06 08:51:55;;;;;;;21.30;16.45;;;-1.60;73.50;;;;;;5166243;28;20046;-75
2021/01/06 08:54:31;;;;;;;19.08;14.68;;;-1.70;73.80;;;;;;5163741;28;20096;-75
2021/01/06 08:57:28;;;;;;;19.77;15.48;;;-1.80;74.00;;;;;;5166946;28;20092;-75
2021/01/06 09:00:47;;;;;;;19.92;14.80;;;-1.90;74.20;;;;;;5149162;28;20471;-76
2021/01/06 09:03:54;;;;;;;21.13;15.50;;;-2.10;75.30;;;;;;5105613;28;20050;-76
2021/01/06 09:06:26;;;;;;;21.52;16.48;;;-2.00;75.10;;;;;;5143748;28;20125;-75
2021/01/06 09:09:15;;;;;;;21.25;15.82;;;-2.20;75.60;;;;;;5165794;28;20054;-77
2021/01/06 09:11:54;;;;;;;23.02;16.48;;;-2.20;75.80;;;;;;5167149;28;20084;-75
2021/01/06 09:14:41;;;;;;;20.97;15.73;;;-2.20;75.30;;;;;;5165927;28;20034;-76
2021/01/06 09:17:39;;;;;;;20.42;15.35;;;-2.10;75.60;;;;;;5164054;28;20051;-77
2021/01/06 09:20:19;;;;;;;20.10;14.48;;;-2.10;75.10;;;;;;5167586;28;20039;-75
2021/01/06 09:22:51;;;;;;;19.83;15.40;;;-2.00;75.00;;;;;;5158002;28;20042;-77
2021/01/06 09:25:26;;;;;;;19.40;14.38;;;-1.90;74.70;;;;;;5168430;28;20047;-77
2021/01/06 09:28:00;;;;;;;18.98;14.27;;;-1.80;74.30;;;;;;5165672;28;20045;-75
2021/01/06 09:30:35;;;;;;;19.65;15.38;;;-1.60;74.40;;;;;;5170089;28;20037;-77
2021/01/06 09:33:20;;;;;;;17.75;14.10;;;-1.50;73.50;;;;;;5151686;28;20042;-75
2021/01/06 09:35:53;;;;;;;20.55;15.05;;;-1.40;73.20;;;;;;5167325;28;20042;-80
2021/01/06 09:38:50;;;;;;;17.83;14.75;;;-1.20;72.50;;;;;;5163836;28;20041;-76
2021/01/06 09:41:27;;;;;;;20.13;15.45;;;-1.10;72.90;;;;;;5168512;28;20054;-76
2021/01/06 09:44:02;;;;;;;18.35;15.68;;;-0.90;71.90;;;;;;5163562;28;20069;-75
2021/01/06 09:46:58;;;;;;;18.92;15.75;;;-0.70;72.70;;;;;;5165806;28;20117;-75
2021/01/06 09:49:35;;;;;;;19.52;15.60;;;-0.60;70.40;;;;;;5164343;28;20049;-75
2021/01/06 09:52:29;;;;;;;17.98;15.20;;;-0.60;69.80;;;;;;5163851;28;20444;-77
2021/01/06 09:55:01;;;;;;;19.23;14.60;;;-0.40;69.50;;;;;;5162791;28;20075;-77
2021/01/06 09:57:33;;;;;;;19.10;14.88;;;-0.30;71.10;;;;;;5164818;28;20606;-77
2021/01/06 10:00:33;;;;;;;18.80;15.70;;;-0.20;71.10;;;;;;5152167;28;20104;-76
2021/01/06 10:03:05;;;;;;;;;;;-0.10;70.30;;;;;;5165055;28;20042;-76
2021/01/06 10:05:55;;;;;;;20.10;15.15;;;0.00;69.70;;;;;;5165775;28;19929;-75
2021/01/06 10:08:30;;;;;;;22.73;15.70;;;0.10;69.70;;;;;;5166991;28;20500;-75
2021/01/06 10:11:40;;;;;;;17.88;15.35;;;0.20;68.70;;;;;;5164640;28;20288;-75
2021/01/06 10:14:38;;;;;;;18.17;15.00;;;0.20;68.00;;;;;;5165251;28;20109;-75
2021/01/06 10:17:37;;;;;;;20.35;15.80;;;0.20;68.70;;;;;;5149896;28;20049;-76
2021/01/06 10:20:21;;;;;;;18.27;14.97;;;0.30;68.70;;;;;;5146652;28;20067;-78
2021/01/06 10:22:57;;;;;;;19.70;16.05;;;0.40;68.70;;;;;;5169790;28;20644;-77
2021/01/06 10:25:44;;;;;;;19.50;14.77;;;0.50;68.80;;;;;;5164446;28;20038;-78
2021/01/06 10:28:22;;;;;;;21.33;14.75;;;0.50;68.10;;;;;;5146276;28;20412;-77
2021/01/06 10:31:22;;;;;;;18.45;14.48;;;0.60;68.60;;;;;;5164299;28;20065;-77
2021/01/06 10:34:02;;;;;;;20.17;15.75;;;0.60;67.90;;;;;;5164412;28;20037;-76
2021/01/06 10:36:53;;;;;;;19.48;15.80;;;0.60;68.30;;;;;;5164995;28;20042;-78
2021/01/06 10:39:44;;;;;;;;;;;0.70;68.10;;;;;;5164500;28;20479;-76
2021/01/06 10:42:22;;;;;;;19.35;15.93;;;0.80;67.90;;;;;;5164609;28;19925;-79
2021/01/06 10:45:03;;;;;;;20.13;15.50;;;0.80;67.10;;;;;;5163002;28;20042;-77
2021/01/06 10:47:44;;;;;;;20.45;15.10;;;0.80;67.40;;;;;;5129958;28;20893;-77
2021/01/06 10:50:29;;;;;;;20.77;15.27;;;0.80;67.60;;;;;;5126666;28;20057;-77
2021/01/06 10:53:12;;;;;;;19.25;14.23;;;0.80;67.30;;;;;;5142177;28;20047;-77
2021/01/06 10:56:00;;;;;;;20.40;14.73;;;0.90;67.40;;;;;;5145751;28;20055;-78
2021/01/06 10:58:43;;;;;;;21.27;14.80;;;1.00;67.50;;;;;;5144562;28;20062;-78
2021/01/06 11:01:53;;;;;;;22.35;15.10;;;1.10;67.20;;;;;;5142103;28;20050;-76
2021/01/06 11:04:45;;;;;;;19.23;15.38;;;1.20;66.10;;;;;;5143496;28;20043;-74
2021/01/06 11:07:48;;;;;;;18.98;14.65;;;1.20;66.70;;;;;;5145509;28;20074;-76
2021/01/06 11:10:34;;;;;;;20.25;15.60;;;1.30;66.30;;;;;;5143877;28;20074;-76
2021/01/06 11:13:34;;;;;;;21.08;16.23;;;1.40;66.60;;;;;;5143927;28;20045;-76
2021/01/06 11:16:10;;;;;;;19.00;16.02;;;1.40;65.60;;;;;;5143973;28;20164;-75
2021/01/06 11:18:45;;;;;;;18.95;15.02;;;1.50;66.00;;;;;;5145648;28;20042;-74
2021/01/06 11:21:23;;;;;;;16.90;14.57;;;1.50;65.10;;;;;;5142031;28;21666;-77
2021/01/06 11:24:00;;;;;;;18.45;14.77;;;1.50;65.20;;;;;;5147260;28;20572;-76
2021/01/06 11:26:45;;;;;;;19.08;15.27;;;1.60;65.60;;;;;;5148139;28;20053;-74
2021/01/06 11:29:29;;;;;;;18.92;14.77;;;1.60;64.50;;;;;;5145212;28;20064;-79
2021/01/06 11:32:00;;;;;;;20.90;15.60;;;1.60;64.80;;;;;;5129653;28;20122;-76
2021/01/06 11:34:38;;;;;;;20.10;14.25;;;1.60;65.10;;;;;;5145483;28;20048;-77
2021/01/06 11:37:37;;;;;;;17.98;14.30;;;1.60;64.40;;;;;;5143812;28;20047;-77
2021/01/06 11:40:32;;;;;;;18.47;15.40;;;1.70;64.30;;;;;;5142400;28;20054;-75
2021/01/06 11:43:36;;;;;;;18.42;14.95;;;1.70;63.80;;;;;;5136816;28;20046;-76
2021/01/06 11:46:35;;;;;;;19.95;15.15;;;1.70;64.10;;;;;;5116367;28;20710;-75
2021/01/06 11:49:12;;;;;;;18.75;14.80;;;1.70;64.20;;;;;;5145469;28;20424;-77
2021/01/06 11:52:02;;;;;;;20.98;15.35;;;1.80;65.20;;;;;;5142122;28;20046;-76
2021/01/06 11:54:45;;;;;;;19.30;15.32;;;1.80;62.60;;;;;;5143484;28;20053;-79
2021/01/06 11:57:21;;;;;;;21.00;14.68;;;1.70;64.00;;;;;;5143080;28;20053;-75
2021/01/06 12:00:11;;;;;;;18.23;15.30;;;1.70;63.70;;;;;;5144602;28;20462;-76
2021/01/06 12:03:07;;;;;;;18.13;14.73;;;1.80;63.70;;;;;;5150601;28;20060;-76
2021/01/06 12:06:04;;;;;;;22.13;17.10;;;1.80;64.50;;;;;;5165281;28;20042;-75
2021/01/06 12:08:59;;;;;;;21.55;15.85;;;1.80;64.20;;;;;;5163468;28;20045;-77
2021/01/06 12:11:37;;;;;;;19.98;15.93;;;1.80;63.90;;;;;;5164518;28;20117;-78
2021/01/06 12:14:28;;;;;;;22.52;17.15;;;1.80;64.20;;;;;;5165045;28;20070;-76
2021/01/06 12:17:23;;;;;;;19.52;15.70;;;1.90;65.00;;;;;;5161799;28;20050;-74
2021/01/06 12:20:21;;;;;;;21.73;16.55;;;1.90;64.80;;;;;;5163949;28;20073;-74
2021/01/06 12:23:24;;;;;;;18.88;15.38;;;2.00;65.00;;;;;;5165495;28;20042;-76
2021/01/06 12:25:58;;;;;;;18.30;14.70;;;2.00;64.50;;;;;;5134559;28;20066;-75
2021/01/06 12:28:46;;;;;;;17.52;14.63;;;2.00;64.50;;;;;;5169057;28;20050;-74
2021/01/06 12:31:21;;;;;;;18.35;15.70;;;2.00;62.60;;;;;;5162468;28;20447;-79
2021/01/06 12:34:16;;;;;;;21.27;16.52;;;2.00;63.50;;;;;;5161712;28;20614;-76
2021/01/06 12:37:02;;;;;;;30.98;23.13;;;2.00;63.40;;;;;;5146049;28;20038;-76
2021/01/06 12:39:42;;;;;;;24.25;18.73;;;2.00;64.30;;;;;;5145857;28;20042;-78
2021/01/06 12:42:14;;;;;;;23.98;17.30;;;1.90;62.70;;;;;;5162774;28;20086;-77
2021/01/06 12:45:08;;;;;;;19.40;16.25;;;2.00;64.30;;;;;;5168670;28;20278;-76
2021/01/06 12:47:48;;;;;;;24.23;18.23;;;2.00;64.50;;;;;;5166887;28;20073;-77
2021/01/06 12:50:32;;;;;;;22.98;17.50;;;2.00;64.60;;;;;;5166743;28;20050;-78
2021/01/06 12:53:30;;;;;;;25.00;18.27;;;2.00;64.60;;;;;;5164563;28;20041;-77
2021/01/06 12:56:05;;;;;;;23.13;17.75;;;2.00;64.40;;;;;;5148054;28;20587;-77
2021/01/06 12:58:44;;;;;;;20.33;16.38;;;2.10;64.90;;;;;;5168918;28;20096;-78
2021/01/06 13:01:33;;;;;;;23.67;19.02;;;2.10;65.10;;;;;;5145964;28;20065;-76
2021/01/06 13:04:06;;;;;;;23.70;18.75;;;2.10;65.10;;;;;;5168637;28;20479;-77
2021/01/06 13:06:48;;;;;;;20.50;16.52;;;2.10;65.00;;;;;;5169242;28;20108;-76
2021/01/06 13:09:28;;;;;;;20.98;17.45;;;2.10;65.20;;;;;;5170165;28;20050;-79
2021/01/06 13:12:22;;;;;;;21.20;16.40;;;2.10;65.20;;;;;;5166252;28;20053;-76
2021/01/06 13:15:08;;;;;;;22.02;16.58;;;2.10;64.90;;;;;;5155788;28;20553;-76
2021/01/06 13:17:44;;;;;;;22.23;16.42;;;2.10;65.30;;;;;;5167280;28;20046;-76
2021/01/06 13:20:35;;;;;;;18.75;15.98;;;2.10;64.80;;;;;;5149784;28;20180;-76
2021/01/06 13:23:25;;;;;;;19.45;16.27;;;2.10;65.00;;;;;;5166278;28;20041;-79
2021/01/06 13:26:15;;;;;;;19.73;15.50;;;2.10;65.10;;;;;;5168367;28;20092;-76
2021/01/06 13:29:13;;;;;;;18.98;16.17;;;2.10;65.40;;;;;;5169501;28;20050;-76
2021/01/06 13:32:03;;;;;;;18.25;15.77;;;2.00;65.10;;;;;;5164418;28;20038;-77
2021/01/06 13:34:39;;;;;;;19.80;15.67;;;2.10;64.70;;;;;;5167826;28;20578;-77
2021/01/06 13:37:11;;;;;;;18.88;15.02;;;2.00;64.90;;;;;;5157833;28;20038;-77
2021/01/06 13:40:03;;;;;;;18.75;15.25;;;2.00;64.80;;;;;;5166393;28;20065;-76
2021/01/06 13:42:55;;;;;;;21.25;15.50;;;2.00;64.80;;;;;;5151952;28;20049;-76
2021/01/06 13:45:35;;;;;;;18.90;14.85;;;2.00;64.50;;;;;;5164158;28;20042;-75